sensor_id;sensor_type;location;lat;lon;timestamp;P1;durP1;ratioP1;P2;durP2;ratioP2
11791;SDS011;5953;52.372;9.918;2023-05-02T00:00:05;2.30;;;1.40;;
11791;SDS011;5953;52.372;9.918;2023-05-02T00:02:34;2.83;;;1.37;;
11791;SDS011;5953;52.372;9.918;2023-05-02T00:05:03;2.37;;;1.40;;
11791;SDS011;5953;52.372;9.918;2023-05-02T00:07:31;2.10;;;1.63;;
11791;SDS011;5953;52.372;9.918;2023-05-02T00:10:01;1.50;;;1.30;;
11791;SDS011;5953;52.372;9.918;2023-05-02T00:12:29;2.43;;;1.40;;
11791;SDS011;5953;52.372;9.918;2023-05-02T00:14:56;2.90;;;1.70;;
11791;SDS011;5953;52.372;9.918;2023-05-02T00:17:24;3.73;;;1.80;;
11791;SDS011;5953;52.372;9.918;2023-05-02T00:19:52;2.40;;;1.57;;
11791;SDS011;5953;52.372;9.918;2023-05-02T00:22:20;2.50;;;2.00;;
11791;SDS011;5953;52.372;9.918;2023-05-02T00:24:48;4.30;;;2.00;;
11791;SDS011;5953;52.372;9.918;2023-05-02T00:27:19;3.27;;;2.00;;
11791;SDS011;5953;52.372;9.918;2023-05-02T00:29:47;3.73;;;1.97;;
11791;SDS011;5953;52.372;9.918;2023-05-02T00:32:17;2.57;;;2.23;;
11791;SDS011;5953;52.372;9.918;2023-05-02T00:34:45;3.53;;;2.53;;
11791;SDS011;5953;52.372;9.918;2023-05-02T00:37:13;4.27;;;2.77;;
11791;SDS011;5953;52.372;9.918;2023-05-02T00:39:41;5.37;;;3.27;;
11791;SDS011;5953;52.372;9.918;2023-05-02T00:42:10;5.00;;;3.03;;
11791;SDS011;5953;52.372;9.918;2023-05-02T00:44:39;5.47;;;3.13;;
11791;SDS011;5953;52.372;9.918;2023-05-02T00:47:07;5.60;;;3.20;;
11791;SDS011;5953;52.372;9.918;2023-05-02T00:49:34;3.73;;;3.07;;
11791;SDS011;5953;52.372;9.918;2023-05-02T00:52:02;5.60;;;3.07;;
11791;SDS011;5953;52.372;9.918;2023-05-02T00:54:30;6.33;;;3.27;;
11791;SDS011;5953;52.372;9.918;2023-05-02T00:56:58;3.83;;;3.10;;
11791;SDS011;5953;52.372;9.918;2023-05-02T00:59:26;4.93;;;3.07;;
11791;SDS011;5953;52.372;9.918;2023-05-02T01:01:58;4.60;;;3.27;;
11791;SDS011;5953;52.372;9.918;2023-05-02T01:04:34;5.70;;;3.43;;
11791;SDS011;5953;52.372;9.918;2023-05-02T01:07:13;3.80;;;3.03;;
11791;SDS011;5953;52.372;9.918;2023-05-02T01:09:55;4.13;;;2.83;;
11791;SDS011;5953;52.372;9.918;2023-05-02T01:12:30;4.30;;;3.50;;
11791;SDS011;5953;52.372;9.918;2023-05-02T01:15:01;6.57;;;3.20;;
11791;SDS011;5953;52.372;9.918;2023-05-02T01:17:35;5.60;;;3.23;;
11791;SDS011;5953;52.372;9.918;2023-05-02T01:20:05;5.20;;;3.00;;
11791;SDS011;5953;52.372;9.918;2023-05-02T01:22:36;7.57;;;3.17;;
11791;SDS011;5953;52.372;9.918;2023-05-02T01:25:07;6.33;;;3.07;;
11791;SDS011;5953;52.372;9.918;2023-05-02T01:27:46;7.57;;;3.20;;
11791;SDS011;5953;52.372;9.918;2023-05-02T01:30:24;7.10;;;3.47;;
11791;SDS011;5953;52.372;9.918;2023-05-02T01:32:54;10.73;;;3.10;;
11791;SDS011;5953;52.372;9.918;2023-05-02T01:35:24;6.67;;;3.27;;
11791;SDS011;5953;52.372;9.918;2023-05-02T01:37:53;5.97;;;3.30;;
11791;SDS011;5953;52.372;9.918;2023-05-02T01:40:24;8.53;;;3.57;;
11791;SDS011;5953;52.372;9.918;2023-05-02T01:42:52;7.30;;;4.30;;
11791;SDS011;5953;52.372;9.918;2023-05-02T01:45:21;5.87;;;4.60;;
11791;SDS011;5953;52.372;9.918;2023-05-02T01:47:52;9.77;;;5.60;;
11791;SDS011;5953;52.372;9.918;2023-05-02T01:50:22;5.97;;;5.30;;
11791;SDS011;5953;52.372;9.918;2023-05-02T01:52:52;8.40;;;4.90;;
11791;SDS011;5953;52.372;9.918;2023-05-02T01:55:21;7.50;;;5.53;;
11791;SDS011;5953;52.372;9.918;2023-05-02T01:57:52;8.80;;;5.77;;
11791;SDS011;5953;52.372;9.918;2023-05-02T02:00:22;8.00;;;6.10;;
11791;SDS011;5953;52.372;9.918;2023-05-02T02:02:52;11.20;;;6.37;;
11791;SDS011;5953;52.372;9.918;2023-05-02T02:05:21;8.87;;;6.60;;
11791;SDS011;5953;52.372;9.918;2023-05-02T02:07:49;7.77;;;6.13;;
11791;SDS011;5953;52.372;9.918;2023-05-02T02:10:17;7.77;;;5.73;;
11791;SDS011;5953;52.372;9.918;2023-05-02T02:12:48;10.10;;;6.90;;
11791;SDS011;5953;52.372;9.918;2023-05-02T02:15:20;7.47;;;6.43;;
11791;SDS011;5953;52.372;9.918;2023-05-02T02:17:56;10.00;;;6.53;;
11791;SDS011;5953;52.372;9.918;2023-05-02T02:20:27;10.37;;;8.30;;
11791;SDS011;5953;52.372;9.918;2023-05-02T02:22:58;11.43;;;7.43;;
11791;SDS011;5953;52.372;9.918;2023-05-02T02:25:29;12.07;;;9.20;;
11791;SDS011;5953;52.372;9.918;2023-05-02T02:27:58;12.67;;;9.23;;
11791;SDS011;5953;52.372;9.918;2023-05-02T02:30:27;12.50;;;9.23;;
11791;SDS011;5953;52.372;9.918;2023-05-02T02:32:55;12.13;;;9.83;;
11791;SDS011;5953;52.372;9.918;2023-05-02T02:35:24;12.50;;;11.10;;
11791;SDS011;5953;52.372;9.918;2023-05-02T02:37:58;15.13;;;11.40;;
11791;SDS011;5953;52.372;9.918;2023-05-02T02:40:33;15.03;;;11.03;;
11791;SDS011;5953;52.372;9.918;2023-05-02T02:43:09;16.73;;;11.37;;
11791;SDS011;5953;52.372;9.918;2023-05-02T02:45:46;19.13;;;11.80;;
11791;SDS011;5953;52.372;9.918;2023-05-02T02:48:23;17.70;;;11.47;;
11791;SDS011;5953;52.372;9.918;2023-05-02T02:50:58;15.87;;;12.10;;
11791;SDS011;5953;52.372;9.918;2023-05-02T02:53:43;17.83;;;12.33;;
11791;SDS011;5953;52.372;9.918;2023-05-02T02:56:19;15.63;;;11.50;;
11791;SDS011;5953;52.372;9.918;2023-05-02T02:58:54;17.63;;;12.90;;
11791;SDS011;5953;52.372;9.918;2023-05-02T03:01:26;16.53;;;12.47;;
11791;SDS011;5953;52.372;9.918;2023-05-02T03:03:57;21.10;;;14.80;;
11791;SDS011;5953;52.372;9.918;2023-05-02T03:06:26;19.50;;;15.47;;
11791;SDS011;5953;52.372;9.918;2023-05-02T03:08:54;18.23;;;14.27;;
11791;SDS011;5953;52.372;9.918;2023-05-02T03:11:21;22.17;;;16.27;;
11791;SDS011;5953;52.372;9.918;2023-05-02T03:13:49;20.77;;;15.50;;
11791;SDS011;5953;52.372;9.918;2023-05-02T03:16:24;20.13;;;14.73;;
11791;SDS011;5953;52.372;9.918;2023-05-02T03:19:00;22.53;;;14.80;;
11791;SDS011;5953;52.372;9.918;2023-05-02T03:21:28;21.13;;;14.90;;
11791;SDS011;5953;52.372;9.918;2023-05-02T03:23:57;17.90;;;14.23;;
11791;SDS011;5953;52.372;9.918;2023-05-02T03:26:25;19.67;;;14.40;;
11791;SDS011;5953;52.372;9.918;2023-05-02T03:28:54;17.37;;;13.77;;
11791;SDS011;5953;52.372;9.918;2023-05-02T03:31:22;18.50;;;14.63;;
11791;SDS011;5953;52.372;9.918;2023-05-02T03:33:53;19.87;;;14.60;;
11791;SDS011;5953;52.372;9.918;2023-05-02T03:36:21;21.53;;;14.50;;
11791;SDS011;5953;52.372;9.918;2023-05-02T03:38:49;18.23;;;12.97;;
11791;SDS011;5953;52.372;9.918;2023-05-02T03:41:18;20.17;;;14.63;;
11791;SDS011;5953;52.372;9.918;2023-05-02T03:43:46;18.30;;;13.83;;
11791;SDS011;5953;52.372;9.918;2023-05-02T03:46:14;18.23;;;14.30;;
11791;SDS011;5953;52.372;9.918;2023-05-02T03:48:42;19.23;;;13.77;;
11791;SDS011;5953;52.372;9.918;2023-05-02T03:51:12;17.80;;;14.00;;
11791;SDS011;5953;52.372;9.918;2023-05-02T03:53:40;19.77;;;13.67;;
11791;SDS011;5953;52.372;9.918;2023-05-02T03:56:08;20.40;;;14.40;;
11791;SDS011;5953;52.372;9.918;2023-05-02T03:58:36;15.80;;;12.80;;
11791;SDS011;5953;52.372;9.918;2023-05-02T04:01:07;17.80;;;12.43;;
11791;SDS011;5953;52.372;9.918;2023-05-02T04:03:40;18.87;;;13.90;;
11791;SDS011;5953;52.372;9.918;2023-05-02T04:06:09;17.63;;;12.33;;
11791;SDS011;5953;52.372;9.918;2023-05-02T04:08:40;17.83;;;12.47;;
11791;SDS011;5953;52.372;9.918;2023-05-02T04:11:07;18.33;;;12.67;;
11791;SDS011;5953;52.372;9.918;2023-05-02T04:13:35;16.93;;;11.53;;
11791;SDS011;5953;52.372;9.918;2023-05-02T04:16:03;16.37;;;12.63;;
11791;SDS011;5953;52.372;9.918;2023-05-02T04:18:32;17.00;;;12.90;;
11791;SDS011;5953;52.372;9.918;2023-05-02T04:21:00;16.33;;;12.97;;
11791;SDS011;5953;52.372;9.918;2023-05-02T04:23:27;18.70;;;12.67;;
11791;SDS011;5953;52.372;9.918;2023-05-02T04:25:57;18.63;;;12.70;;
11791;SDS011;5953;52.372;9.918;2023-05-02T04:28:24;17.40;;;12.77;;
11791;SDS011;5953;52.372;9.918;2023-05-02T04:30:52;18.33;;;13.80;;
11791;SDS011;5953;52.372;9.918;2023-05-02T04:33:20;18.67;;;12.83;;
11791;SDS011;5953;52.372;9.918;2023-05-02T04:35:48;17.13;;;12.97;;
11791;SDS011;5953;52.372;9.918;2023-05-02T04:38:16;22.27;;;14.70;;
11791;SDS011;5953;52.372;9.918;2023-05-02T04:40:44;18.43;;;13.27;;
11791;SDS011;5953;52.372;9.918;2023-05-02T04:43:13;21.97;;;15.37;;
11791;SDS011;5953;52.372;9.918;2023-05-02T04:45:41;24.60;;;15.83;;
11791;SDS011;5953;52.372;9.918;2023-05-02T04:48:09;24.80;;;16.33;;
11791;SDS011;5953;52.372;9.918;2023-05-02T04:50:37;22.80;;;16.77;;
11791;SDS011;5953;52.372;9.918;2023-05-02T04:53:05;21.63;;;15.50;;
11791;SDS011;5953;52.372;9.918;2023-05-02T04:55:32;25.63;;;16.17;;
11791;SDS011;5953;52.372;9.918;2023-05-02T04:58:01;25.23;;;17.40;;
11791;SDS011;5953;52.372;9.918;2023-05-02T05:00:36;20.47;;;15.47;;
11791;SDS011;5953;52.372;9.918;2023-05-02T05:03:04;22.10;;;16.23;;
11791;SDS011;5953;52.372;9.918;2023-05-02T05:05:32;20.77;;;15.43;;
11791;SDS011;5953;52.372;9.918;2023-05-02T05:08:00;23.83;;;15.50;;
11791;SDS011;5953;52.372;9.918;2023-05-02T05:10:28;23.57;;;15.67;;
11791;SDS011;5953;52.372;9.918;2023-05-02T05:12:56;20.60;;;13.67;;
11791;SDS011;5953;52.372;9.918;2023-05-02T05:15:24;20.93;;;14.10;;
11791;SDS011;5953;52.372;9.918;2023-05-02T05:17:53;18.17;;;13.40;;
11791;SDS011;5953;52.372;9.918;2023-05-02T05:20:21;25.97;;;14.50;;
11791;SDS011;5953;52.372;9.918;2023-05-02T05:22:50;21.23;;;13.77;;
11791;SDS011;5953;52.372;9.918;2023-05-02T05:25:18;17.20;;;11.50;;
11791;SDS011;5953;52.372;9.918;2023-05-02T05:27:45;10.67;;;7.40;;
11791;SDS011;5953;52.372;9.918;2023-05-02T05:30:13;7.90;;;6.17;;
11791;SDS011;5953;52.372;9.918;2023-05-02T05:32:41;9.43;;;5.47;;
11791;SDS011;5953;52.372;9.918;2023-05-02T05:35:11;4.70;;;3.60;;
11791;SDS011;5953;52.372;9.918;2023-05-02T05:37:39;3.97;;;3.13;;
11791;SDS011;5953;52.372;9.918;2023-05-02T05:40:07;3.40;;;3.00;;
11791;SDS011;5953;52.372;9.918;2023-05-02T05:42:35;4.23;;;2.70;;
11791;SDS011;5953;52.372;9.918;2023-05-02T05:45:03;2.83;;;2.53;;
11791;SDS011;5953;52.372;9.918;2023-05-02T05:47:32;3.77;;;2.20;;
11791;SDS011;5953;52.372;9.918;2023-05-02T05:50:00;2.30;;;2.10;;
11791;SDS011;5953;52.372;9.918;2023-05-02T05:52:30;3.07;;;1.73;;
11791;SDS011;5953;52.372;9.918;2023-05-02T05:54:58;1.80;;;1.57;;
11791;SDS011;5953;52.372;9.918;2023-05-02T05:57:25;5.10;;;2.33;;
11791;SDS011;5953;52.372;9.918;2023-05-02T05:59:53;2.30;;;1.77;;
11791;SDS011;5953;52.372;9.918;2023-05-02T06:02:21;6.10;;;2.20;;
11791;SDS011;5953;52.372;9.918;2023-05-02T06:04:49;2.70;;;1.93;;
11791;SDS011;5953;52.372;9.918;2023-05-02T06:07:20;4.13;;;2.03;;
11791;SDS011;5953;52.372;9.918;2023-05-02T06:09:49;3.93;;;2.23;;
11791;SDS011;5953;52.372;9.918;2023-05-02T06:12:17;3.97;;;2.13;;
11791;SDS011;5953;52.372;9.918;2023-05-02T06:14:45;5.80;;;2.33;;
11791;SDS011;5953;52.372;9.918;2023-05-02T06:17:12;5.17;;;1.87;;
11791;SDS011;5953;52.372;9.918;2023-05-02T06:19:40;6.47;;;2.00;;
11791;SDS011;5953;52.372;9.918;2023-05-02T06:22:10;3.17;;;2.40;;
11791;SDS011;5953;52.372;9.918;2023-05-02T06:24:41;7.43;;;2.20;;
11791;SDS011;5953;52.372;9.918;2023-05-02T06:27:12;5.73;;;2.07;;
11791;SDS011;5953;52.372;9.918;2023-05-02T06:29:40;6.83;;;2.30;;
11791;SDS011;5953;52.372;9.918;2023-05-02T06:32:07;5.07;;;2.80;;
11791;SDS011;5953;52.372;9.918;2023-05-02T06:34:38;6.53;;;2.40;;
11791;SDS011;5953;52.372;9.918;2023-05-02T06:37:06;10.00;;;3.23;;
11791;SDS011;5953;52.372;9.918;2023-05-02T06:39:33;9.87;;;3.17;;
11791;SDS011;5953;52.372;9.918;2023-05-02T06:42:02;7.20;;;2.87;;
11791;SDS011;5953;52.372;9.918;2023-05-02T06:44:31;7.93;;;2.87;;
11791;SDS011;5953;52.372;9.918;2023-05-02T06:46:59;9.20;;;2.93;;
11791;SDS011;5953;52.372;9.918;2023-05-02T06:49:27;5.83;;;3.10;;
11791;SDS011;5953;52.372;9.918;2023-05-02T06:51:54;6.97;;;3.07;;
11791;SDS011;5953;52.372;9.918;2023-05-02T06:54:22;7.27;;;3.20;;
11791;SDS011;5953;52.372;9.918;2023-05-02T06:56:51;10.70;;;3.40;;
11791;SDS011;5953;52.372;9.918;2023-05-02T06:59:19;10.73;;;3.43;;
11791;SDS011;5953;52.372;9.918;2023-05-02T07:01:48;12.40;;;3.87;;
11791;SDS011;5953;52.372;9.918;2023-05-02T07:04:16;13.47;;;3.90;;
11791;SDS011;5953;52.372;9.918;2023-05-02T07:06:44;12.27;;;3.10;;
11791;SDS011;5953;52.372;9.918;2023-05-02T07:09:12;7.40;;;3.37;;
11791;SDS011;5953;52.372;9.918;2023-05-02T07:11:40;7.17;;;2.90;;
11791;SDS011;5953;52.372;9.918;2023-05-02T07:14:08;5.90;;;2.43;;
11791;SDS011;5953;52.372;9.918;2023-05-02T07:16:36;11.23;;;2.70;;
11791;SDS011;5953;52.372;9.918;2023-05-02T07:19:05;8.83;;;2.53;;
11791;SDS011;5953;52.372;9.918;2023-05-02T07:21:33;10.43;;;3.27;;
11791;SDS011;5953;52.372;9.918;2023-05-02T07:24:00;7.73;;;3.10;;
11791;SDS011;5953;52.372;9.918;2023-05-02T07:26:28;7.03;;;2.73;;
11791;SDS011;5953;52.372;9.918;2023-05-02T07:28:56;6.37;;;2.60;;
11791;SDS011;5953;52.372;9.918;2023-05-02T07:31:24;10.40;;;3.20;;
11791;SDS011;5953;52.372;9.918;2023-05-02T07:33:52;9.07;;;3.40;;
11791;SDS011;5953;52.372;9.918;2023-05-02T07:36:21;8.97;;;2.87;;
11791;SDS011;5953;52.372;9.918;2023-05-02T07:38:49;9.87;;;3.23;;
11791;SDS011;5953;52.372;9.918;2023-05-02T07:41:17;10.83;;;3.50;;
11791;SDS011;5953;52.372;9.918;2023-05-02T07:43:44;12.47;;;3.27;;
11791;SDS011;5953;52.372;9.918;2023-05-02T07:46:12;8.17;;;3.47;;
11791;SDS011;5953;52.372;9.918;2023-05-02T07:48:40;9.80;;;3.53;;
11791;SDS011;5953;52.372;9.918;2023-05-02T07:51:09;9.47;;;3.30;;
11791;SDS011;5953;52.372;9.918;2023-05-02T07:53:38;7.53;;;3.03;;
11791;SDS011;5953;52.372;9.918;2023-05-02T07:56:06;11.97;;;3.63;;
11791;SDS011;5953;52.372;9.918;2023-05-02T07:58:34;7.77;;;2.90;;
11791;SDS011;5953;52.372;9.918;2023-05-02T08:01:03;6.80;;;3.50;;
11791;SDS011;5953;52.372;9.918;2023-05-02T08:03:31;11.90;;;3.30;;
11791;SDS011;5953;52.372;9.918;2023-05-02T08:05:59;10.60;;;2.97;;
11791;SDS011;5953;52.372;9.918;2023-05-02T08:08:27;12.27;;;3.27;;
11791;SDS011;5953;52.372;9.918;2023-05-02T08:10:56;14.13;;;2.93;;
11791;SDS011;5953;52.372;9.918;2023-05-02T08:13:25;10.07;;;2.93;;
11791;SDS011;5953;52.372;9.918;2023-05-02T08:15:53;9.63;;;3.40;;
11791;SDS011;5953;52.372;9.918;2023-05-02T08:18:24;9.20;;;2.87;;
11791;SDS011;5953;52.372;9.918;2023-05-02T08:20:52;11.33;;;3.17;;
11791;SDS011;5953;52.372;9.918;2023-05-02T08:23:20;12.63;;;3.17;;
11791;SDS011;5953;52.372;9.918;2023-05-02T08:25:48;11.63;;;3.03;;
11791;SDS011;5953;52.372;9.918;2023-05-02T08:28:17;10.07;;;2.83;;
11791;SDS011;5953;52.372;9.918;2023-05-02T08:30:45;8.03;;;2.20;;
11791;SDS011;5953;52.372;9.918;2023-05-02T08:33:14;8.50;;;2.37;;
11791;SDS011;5953;52.372;9.918;2023-05-02T08:35:41;11.40;;;2.30;;
11791;SDS011;5953;52.372;9.918;2023-05-02T08:38:09;7.50;;;3.30;;
11791;SDS011;5953;52.372;9.918;2023-05-02T08:40:37;6.47;;;2.07;;
11791;SDS011;5953;52.372;9.918;2023-05-02T08:43:08;5.93;;;2.10;;
11791;SDS011;5953;52.372;9.918;2023-05-02T08:45:39;8.80;;;2.87;;
11791;SDS011;5953;52.372;9.918;2023-05-02T08:48:09;7.60;;;2.33;;
11791;SDS011;5953;52.372;9.918;2023-05-02T08:50:39;6.37;;;2.13;;
11791;SDS011;5953;52.372;9.918;2023-05-02T08:53:10;5.77;;;2.03;;
11791;SDS011;5953;52.372;9.918;2023-05-02T08:55:39;5.63;;;1.97;;
11791;SDS011;5953;52.372;9.918;2023-05-02T08:58:08;6.57;;;2.13;;
11791;SDS011;5953;52.372;9.918;2023-05-02T09:00:40;6.67;;;2.60;;
11791;SDS011;5953;52.372;9.918;2023-05-02T09:03:10;5.40;;;2.40;;
11791;SDS011;5953;52.372;9.918;2023-05-02T09:05:56;4.13;;;1.93;;
11791;SDS011;5953;52.372;9.918;2023-05-02T09:08:31;6.27;;;2.13;;
11791;SDS011;5953;52.372;9.918;2023-05-02T09:11:00;7.43;;;2.30;;
11791;SDS011;5953;52.372;9.918;2023-05-02T09:13:29;7.40;;;2.30;;
11791;SDS011;5953;52.372;9.918;2023-05-02T09:16:00;7.20;;;2.43;;
11791;SDS011;5953;52.372;9.918;2023-05-02T09:18:29;7.80;;;1.97;;
11791;SDS011;5953;52.372;9.918;2023-05-02T09:20:58;5.97;;;2.67;;
11791;SDS011;5953;52.372;9.918;2023-05-02T09:26:17;5.63;;;2.47;;
11791;SDS011;5953;52.372;9.918;2023-05-02T09:28:46;7.00;;;2.20;;
11791;SDS011;5953;52.372;9.918;2023-05-02T09:31:17;4.70;;;1.97;;
11791;SDS011;5953;52.372;9.918;2023-05-02T09:34:07;7.03;;;2.57;;
11791;SDS011;5953;52.372;9.918;2023-05-02T09:36:39;4.73;;;2.10;;
11791;SDS011;5953;52.372;9.918;2023-05-02T09:39:09;8.00;;;2.93;;
11791;SDS011;5953;52.372;9.918;2023-05-02T09:41:39;6.63;;;2.33;;
11791;SDS011;5953;52.372;9.918;2023-05-02T09:44:08;5.20;;;2.30;;
11791;SDS011;5953;52.372;9.918;2023-05-02T09:46:41;5.80;;;2.10;;
11791;SDS011;5953;52.372;9.918;2023-05-02T09:49:10;6.57;;;2.27;;
11791;SDS011;5953;52.372;9.918;2023-05-02T09:51:40;8.63;;;2.40;;
11791;SDS011;5953;52.372;9.918;2023-05-02T09:54:09;6.67;;;2.13;;
11791;SDS011;5953;52.372;9.918;2023-05-02T09:56:50;3.43;;;2.03;;
11791;SDS011;5953;52.372;9.918;2023-05-02T09:59:19;7.70;;;1.90;;
11791;SDS011;5953;52.372;9.918;2023-05-02T10:01:53;4.03;;;1.97;;
11791;SDS011;5953;52.372;9.918;2023-05-02T10:04:21;5.50;;;2.00;;
11791;SDS011;5953;52.372;9.918;2023-05-02T10:06:51;7.93;;;2.23;;
11791;SDS011;5953;52.372;9.918;2023-05-02T10:09:20;12.07;;;2.30;;
11791;SDS011;5953;52.372;9.918;2023-05-02T10:11:49;6.07;;;2.27;;
11791;SDS011;5953;52.372;9.918;2023-05-02T10:14:19;5.97;;;2.17;;
11791;SDS011;5953;52.372;9.918;2023-05-02T10:16:51;5.73;;;1.97;;
11791;SDS011;5953;52.372;9.918;2023-05-02T10:19:28;5.03;;;1.90;;
11791;SDS011;5953;52.372;9.918;2023-05-02T10:21:59;5.43;;;1.70;;
11791;SDS011;5953;52.372;9.918;2023-05-02T10:24:29;5.57;;;2.57;;
11791;SDS011;5953;52.372;9.918;2023-05-02T10:26:58;6.87;;;2.17;;
11791;SDS011;5953;52.372;9.918;2023-05-02T10:29:27;4.30;;;2.50;;
11791;SDS011;5953;52.372;9.918;2023-05-02T10:31:57;5.67;;;2.17;;
11791;SDS011;5953;52.372;9.918;2023-05-02T10:34:28;4.83;;;2.40;;
11791;SDS011;5953;52.372;9.918;2023-05-02T10:36:59;9.63;;;2.47;;
11791;SDS011;5953;52.372;9.918;2023-05-02T10:39:27;5.13;;;2.20;;
11791;SDS011;5953;52.372;9.918;2023-05-02T10:41:56;3.97;;;2.13;;
11791;SDS011;5953;52.372;9.918;2023-05-02T10:44:31;5.87;;;2.50;;
11791;SDS011;5953;52.372;9.918;2023-05-02T10:47:02;8.47;;;2.97;;
11791;SDS011;5953;52.372;9.918;2023-05-02T10:49:48;6.93;;;2.63;;
11791;SDS011;5953;52.372;9.918;2023-05-02T10:52:24;8.40;;;3.17;;
11791;SDS011;5953;52.372;9.918;2023-05-02T10:54:59;6.83;;;2.87;;
11791;SDS011;5953;52.372;9.918;2023-05-02T11:00:41;10.83;;;3.30;;
11791;SDS011;5953;52.372;9.918;2023-05-02T11:03:10;5.37;;;2.77;;
11791;SDS011;5953;52.372;9.918;2023-05-02T11:08:33;8.83;;;3.20;;
11791;SDS011;5953;52.372;9.918;2023-05-02T11:14:02;11.87;;;3.47;;
11791;SDS011;5953;52.372;9.918;2023-05-02T11:22:34;11.53;;;4.00;;
11791;SDS011;5953;52.372;9.918;2023-05-02T11:25:01;8.07;;;3.47;;
11791;SDS011;5953;52.372;9.918;2023-05-02T11:27:36;6.33;;;3.33;;
11791;SDS011;5953;52.372;9.918;2023-05-02T11:30:04;7.53;;;3.70;;
11791;SDS011;5953;52.372;9.918;2023-05-02T11:35:35;7.97;;;3.73;;
11791;SDS011;5953;52.372;9.918;2023-05-02T11:38:10;6.37;;;2.87;;
11791;SDS011;5953;52.372;9.918;2023-05-02T11:40:40;6.73;;;2.80;;
11791;SDS011;5953;52.372;9.918;2023-05-02T11:43:17;6.53;;;2.53;;
11791;SDS011;5953;52.372;9.918;2023-05-02T11:45:46;4.97;;;2.80;;
11791;SDS011;5953;52.372;9.918;2023-05-02T11:48:15;5.97;;;2.57;;
11791;SDS011;5953;52.372;9.918;2023-05-02T11:50:45;7.53;;;3.20;;
11791;SDS011;5953;52.372;9.918;2023-05-02T11:53:18;5.47;;;2.70;;
11791;SDS011;5953;52.372;9.918;2023-05-02T11:55:48;8.40;;;2.90;;
11791;SDS011;5953;52.372;9.918;2023-05-02T11:58:18;4.23;;;2.87;;
11791;SDS011;5953;52.372;9.918;2023-05-02T12:00:47;11.80;;;3.27;;
11791;SDS011;5953;52.372;9.918;2023-05-02T12:03:23;6.43;;;2.80;;
11791;SDS011;5953;52.372;9.918;2023-05-02T12:05:53;4.10;;;2.73;;
11791;SDS011;5953;52.372;9.918;2023-05-02T12:08:24;8.03;;;3.33;;
11791;SDS011;5953;52.372;9.918;2023-05-02T12:10:53;6.83;;;3.23;;
11791;SDS011;5953;52.372;9.918;2023-05-02T12:13:23;7.73;;;2.73;;
11791;SDS011;5953;52.372;9.918;2023-05-02T12:15:52;7.30;;;3.63;;
11791;SDS011;5953;52.372;9.918;2023-05-02T12:18:21;8.27;;;3.43;;
11791;SDS011;5953;52.372;9.918;2023-05-02T12:20:51;9.70;;;3.30;;
11791;SDS011;5953;52.372;9.918;2023-05-02T12:23:20;6.20;;;3.13;;
11791;SDS011;5953;52.372;9.918;2023-05-02T12:25:51;9.27;;;3.63;;
11791;SDS011;5953;52.372;9.918;2023-05-02T12:28:18;5.17;;;3.33;;
11791;SDS011;5953;52.372;9.918;2023-05-02T12:30:48;5.43;;;3.27;;
11791;SDS011;5953;52.372;9.918;2023-05-02T12:33:17;6.80;;;3.60;;
11791;SDS011;5953;52.372;9.918;2023-05-02T12:35:45;7.13;;;3.30;;
11791;SDS011;5953;52.372;9.918;2023-05-02T12:38:14;10.13;;;3.80;;
11791;SDS011;5953;52.372;9.918;2023-05-02T12:40:46;5.43;;;2.70;;
11791;SDS011;5953;52.372;9.918;2023-05-02T12:43:17;5.47;;;3.47;;
11791;SDS011;5953;52.372;9.918;2023-05-02T12:45:47;7.63;;;3.23;;
11791;SDS011;5953;52.372;9.918;2023-05-02T12:48:17;8.47;;;3.50;;
11791;SDS011;5953;52.372;9.918;2023-05-02T12:50:46;5.20;;;3.27;;
11791;SDS011;5953;52.372;9.918;2023-05-02T12:53:15;6.00;;;3.37;;
11791;SDS011;5953;52.372;9.918;2023-05-02T12:55:43;8.90;;;3.90;;
11791;SDS011;5953;52.372;9.918;2023-05-02T12:58:13;6.17;;;3.73;;
11791;SDS011;5953;52.372;9.918;2023-05-02T13:00:43;7.80;;;4.13;;
11791;SDS011;5953;52.372;9.918;2023-05-02T13:03:13;7.57;;;3.50;;
11791;SDS011;5953;52.372;9.918;2023-05-02T13:05:41;5.10;;;3.37;;
11791;SDS011;5953;52.372;9.918;2023-05-02T13:08:09;7.10;;;3.87;;
11791;SDS011;5953;52.372;9.918;2023-05-02T13:10:36;6.70;;;3.40;;
11791;SDS011;5953;52.372;9.918;2023-05-02T13:13:04;6.73;;;3.63;;
11791;SDS011;5953;52.372;9.918;2023-05-02T13:15:33;7.67;;;2.93;;
11791;SDS011;5953;52.372;9.918;2023-05-02T13:18:02;5.83;;;3.10;;
11791;SDS011;5953;52.372;9.918;2023-05-02T13:20:30;7.90;;;2.50;;
11791;SDS011;5953;52.372;9.918;2023-05-02T13:22:58;3.93;;;2.33;;
11791;SDS011;5953;52.372;9.918;2023-05-02T13:25:25;4.93;;;2.80;;
11791;SDS011;5953;52.372;9.918;2023-05-02T13:27:53;4.67;;;2.90;;
11791;SDS011;5953;52.372;9.918;2023-05-02T13:30:22;10.93;;;2.80;;
11791;SDS011;5953;52.372;9.918;2023-05-02T13:32:50;4.63;;;2.60;;
11791;SDS011;5953;52.372;9.918;2023-05-02T13:35:19;5.50;;;2.60;;
11791;SDS011;5953;52.372;9.918;2023-05-02T13:37:47;5.23;;;2.33;;
11791;SDS011;5953;52.372;9.918;2023-05-02T13:40:15;3.57;;;2.20;;
11791;SDS011;5953;52.372;9.918;2023-05-02T13:42:43;5.07;;;2.43;;
11791;SDS011;5953;52.372;9.918;2023-05-02T13:45:11;3.73;;;2.27;;
11791;SDS011;5953;52.372;9.918;2023-05-02T13:47:39;4.90;;;2.20;;
11791;SDS011;5953;52.372;9.918;2023-05-02T13:50:07;4.47;;;2.60;;
11791;SDS011;5953;52.372;9.918;2023-05-02T13:52:38;4.20;;;2.43;;
11791;SDS011;5953;52.372;9.918;2023-05-02T13:55:06;3.53;;;2.47;;
11791;SDS011;5953;52.372;9.918;2023-05-02T13:57:34;5.77;;;2.50;;
11791;SDS011;5953;52.372;9.918;2023-05-02T14:00:02;4.43;;;1.87;;
11791;SDS011;5953;52.372;9.918;2023-05-02T14:02:30;2.77;;;1.80;;
11791;SDS011;5953;52.372;9.918;2023-05-02T14:04:58;5.63;;;1.83;;
11791;SDS011;5953;52.372;9.918;2023-05-02T14:07:26;4.33;;;1.97;;
11791;SDS011;5953;52.372;9.918;2023-05-02T14:09:56;4.50;;;2.40;;
11791;SDS011;5953;52.372;9.918;2023-05-02T14:12:24;2.13;;;1.50;;
11791;SDS011;5953;52.372;9.918;2023-05-02T14:14:52;3.20;;;1.73;;
11791;SDS011;5953;52.372;9.918;2023-05-02T14:17:19;3.57;;;1.80;;
11791;SDS011;5953;52.372;9.918;2023-05-02T14:19:50;5.10;;;1.70;;
11791;SDS011;5953;52.372;9.918;2023-05-02T14:22:18;2.30;;;1.33;;
11791;SDS011;5953;52.372;9.918;2023-05-02T14:24:46;2.37;;;1.40;;
11791;SDS011;5953;52.372;9.918;2023-05-02T14:27:15;1.77;;;1.30;;
11791;SDS011;5953;52.372;9.918;2023-05-02T14:29:44;5.77;;;1.93;;
11791;SDS011;5953;52.372;9.918;2023-05-02T14:32:12;2.00;;;1.20;;
11791;SDS011;5953;52.372;9.918;2023-05-02T14:34:40;4.60;;;1.43;;
11791;SDS011;5953;52.372;9.918;2023-05-02T14:37:08;3.87;;;1.30;;
11791;SDS011;5953;52.372;9.918;2023-05-02T14:39:35;4.50;;;1.50;;
11791;SDS011;5953;52.372;9.918;2023-05-02T14:42:04;3.10;;;1.40;;
11791;SDS011;5953;52.372;9.918;2023-05-02T14:44:33;3.90;;;1.10;;
11791;SDS011;5953;52.372;9.918;2023-05-02T14:47:01;3.53;;;1.23;;
11791;SDS011;5953;52.372;9.918;2023-05-02T14:49:29;3.10;;;1.40;;
11791;SDS011;5953;52.372;9.918;2023-05-02T14:51:57;2.03;;;1.13;;
11791;SDS011;5953;52.372;9.918;2023-05-02T14:54:25;2.27;;;1.17;;
11791;SDS011;5953;52.372;9.918;2023-05-02T14:56:53;1.33;;;1.23;;
11791;SDS011;5953;52.372;9.918;2023-05-02T14:59:22;7.77;;;1.83;;
11791;SDS011;5953;52.372;9.918;2023-05-02T15:01:52;3.23;;;1.70;;
11791;SDS011;5953;52.372;9.918;2023-05-02T15:04:20;2.60;;;1.50;;
11791;SDS011;5953;52.372;9.918;2023-05-02T15:06:49;2.60;;;1.70;;
11791;SDS011;5953;52.372;9.918;2023-05-02T15:09:19;4.43;;;1.90;;
11791;SDS011;5953;52.372;9.918;2023-05-02T15:11:48;1.93;;;1.40;;
11791;SDS011;5953;52.372;9.918;2023-05-02T15:14:16;3.33;;;1.40;;
11791;SDS011;5953;52.372;9.918;2023-05-02T15:16:44;2.50;;;1.40;;
11791;SDS011;5953;52.372;9.918;2023-05-02T15:19:13;3.03;;;1.50;;
11791;SDS011;5953;52.372;9.918;2023-05-02T15:21:41;2.70;;;1.33;;
11791;SDS011;5953;52.372;9.918;2023-05-02T15:24:09;4.13;;;1.40;;
11791;SDS011;5953;52.372;9.918;2023-05-02T15:26:37;2.53;;;1.57;;
11791;SDS011;5953;52.372;9.918;2023-05-02T15:29:06;3.47;;;1.13;;